Time;durP1;ratioP1;P1;durP2;ratioP2;P2;SDS_P1;SDS_P2;PMS_P1;PMS_P2;Temp;Humidity;BMP_temperature;BMP_pressure;BME280_temperature;BME280_humidity;BME280_pressure;Samples;Min_cycle;Max_cycle;Signal;HPM_P1;HPM_P2
2022/04/06 00:00:54;;;;;;;;;67.00;54.40;24.80;99.90;;;;;;5039920;28;8785;-67
2022/04/06 00:03:23;;;;;;;;;73.40;56.20;24.90;99.90;;;;;;5039385;28;9480;-69
2022/04/06 00:05:50;;;;;;;;;75.00;61.20;25.00;99.90;;;;;;5059254;28;8766;-69
2022/04/06 00:08:17;;;;;;;;;70.60;55.00;25.00;99.90;;;;;;5041582;28;8763;-68
2022/04/06 00:10:44;;;;;;;;;72.60;56.20;25.10;99.90;;;;;;5059226;28;9412;-69
2022/04/06 00:13:11;;;;;;;;;72.40;60.80;25.10;99.90;;;;;;5042139;28;8739;-69
2022/04/06 00:15:37;;;;;;;;;67.00;53.60;25.10;99.90;;;;;;5058656;28;8755;-69
2022/04/06 00:18:04;;;;;;;;;68.80;55.00;25.10;99.90;;;;;;5040770;28;8767;-69
2022/04/06 00:20:31;;;;;;;;;74.60;56.40;25.20;99.90;;;;;;5041251;28;8851;-69
2022/04/06 00:22:57;;;;;;;;;74.00;56.40;25.20;99.90;;;;;;5021455;28;8785;-69
2022/04/06 00:25:25;;;;;;;;;72.00;56.80;25.20;99.90;;;;;;5039384;28;9315;-69
2022/04/06 00:27:51;;;;;;;;;75.80;61.20;25.30;99.90;;;;;;5021577;28;9551;-69
2022/04/06 00:30:18;;;;;;;;;77.20;63.60;25.30;99.90;;;;;;5038598;28;8803;-69
2022/04/06 00:32:45;;;;;;;;;74.00;60.80;25.40;99.90;;;;;;5021222;28;8771;-69
2022/04/06 00:35:31;;;;;;;;;77.20;58.20;25.40;99.90;;;;;;5052999;28;8751;-69
2022/04/06 00:38:03;;;;;;;;;71.60;57.00;25.40;99.90;;;;;;5043734;28;8779;-70
2022/04/06 00:40:32;;;;;;;;;74.40;60.00;25.40;99.90;;;;;;5073534;28;8833;-68
2022/04/06 00:42:59;;;;;;;;;71.80;58.40;25.40;99.90;;;;;;5074329;28;8755;-69
2022/04/06 00:45:26;;;;;;;;;73.20;59.60;25.20;99.90;;;;;;5040804;28;8850;-69
2022/04/06 00:47:53;;;;;;;;;70.80;58.00;25.20;99.90;;;;;;5058265;28;9447;-69
2022/04/06 00:50:20;;;;;;;;;71.00;57.80;25.30;99.90;;;;;;5058031;28;8753;-68
2022/04/06 00:52:55;;;;;;;;;51.40;43.20;25.40;99.90;;;;;;5020993;28;8879;-69
2022/04/06 00:55:23;;;;;;;;;67.20;51.60;25.40;99.90;;;;;;5022299;28;8768;-69
2022/04/06 00:57:50;;;;;;;;;70.60;57.60;25.40;99.90;;;;;;4995411;28;9807;-69
2022/04/06 01:00:17;;;;;;;;;71.60;55.20;25.40;99.90;;;;;;5021163;28;9323;-69
2022/04/06 01:02:43;;;;;;;;;72.20;61.20;25.40;99.90;;;;;;5004467;28;8776;-69
2022/04/06 01:05:13;;;;;;;;;69.80;56.80;25.40;99.90;;;;;;5052404;28;8758;-69
2022/04/06 01:07:40;;;;;;;;;68.00;57.20;25.50;99.90;;;;;;5057766;28;8762;-69
2022/04/06 01:10:07;;;;;;;;;69.80;54.00;25.50;99.90;;;;;;5058672;28;8778;-69
2022/04/06 01:12:35;;;;;;;;;64.00;50.80;25.50;99.90;;;;;;5057908;28;8743;-69
2022/04/06 01:15:02;;;;;;;;;73.20;61.40;25.50;99.90;;;;;;5057664;28;9387;-69
2022/04/06 01:17:35;;;;;;;;;68.00;55.80;25.40;99.90;;;;;;5057552;28;8790;-69
2022/04/06 01:20:07;;;;;;;;;74.40;60.40;25.50;99.90;;;;;;5060115;28;8791;-69
2022/04/06 01:22:34;;;;;;;;;75.80;64.20;25.40;99.90;;;;;;5037826;28;8729;-68
2022/04/06 01:25:01;;;;;;;;;71.80;60.20;25.40;99.90;;;;;;5053827;28;8737;-69
2022/04/06 01:27:28;;;;;;;;;73.40;62.60;25.40;99.90;;;;;;5052639;28;8749;-68
2022/04/06 01:29:54;;;;;;;;;75.40;61.00;25.20;99.90;;;;;;5037742;28;8757;-69
2022/04/06 01:32:25;;;;;;;;;75.60;60.20;25.30;99.90;;;;;;5019812;28;8795;-69
2022/04/06 01:34:56;;;;;;;;;72.40;58.40;25.30;99.90;;;;;;5064580;28;8759;-69
2022/04/06 01:37:23;;;;;;;;;75.00;61.20;25.40;99.90;;;;;;5057919;28;8735;-69
2022/04/06 01:39:50;;;;;;;;;72.80;57.80;25.40;99.90;;;;;;5057965;28;9426;-69
2022/04/06 01:42:19;;;;;;;;;82.40;65.80;25.50;99.90;;;;;;5057515;28;8750;-67
2022/04/06 01:44:47;;;;;;;;;75.40;63.00;25.60;99.90;;;;;;5072894;28;8747;-69
2022/04/06 01:47:15;;;;;;;;;76.20;59.20;25.60;99.90;;;;;;5057321;28;9467;-69
2022/04/06 01:52:26;;;;;;;;;71.60;57.80;25.70;99.90;;;;;;5026382;28;8733;-68
2022/04/06 01:54:55;;;;;;;;;75.00;60.20;25.70;99.90;;;;;;5053185;28;8764;-69
2022/04/06 01:57:23;;;;;;;;;71.80;61.20;25.70;99.90;;;;;;5019529;28;8785;-68
2022/04/06 01:59:50;;;;;;;;;71.60;55.00;25.70;99.90;;;;;;5037532;28;8752;-69
2022/04/06 02:02:18;;;;;;;;;71.60;56.60;25.80;99.90;;;;;;5037255;28;8765;-68
2022/04/06 02:04:44;;;;;;;;;69.00;56.20;25.90;99.90;;;;;;5047705;28;8790;-69
2022/04/06 02:07:13;;;;;;;;;73.00;57.40;26.00;99.90;;;;;;5057875;28;9372;-69
2022/04/06 02:09:40;;;;;;;;;68.20;53.20;26.10;99.90;;;;;;5056890;28;9411;-69
2022/04/06 02:12:08;;;;;;;;;67.20;54.20;26.20;99.90;;;;;;5023108;28;8743;-69
2022/04/06 02:14:34;;;;;;;;;67.40;54.00;26.40;99.90;;;;;;5056722;28;8782;-69
2022/04/06 02:17:03;;;;;;;;;68.40;53.40;26.40;99.90;;;;;;5048942;28;9431;-69
2022/04/06 02:19:31;;;;;;;;;61.80;49.80;26.50;99.90;;;;;;5048159;28;9407;-68
2022/04/06 02:21:57;;;;;;;;;67.20;53.00;26.60;99.90;;;;;;5037748;28;8755;-69
2022/04/06 02:24:24;;;;;;;;;63.00;48.20;26.70;99.90;;;;;;5019254;28;8896;-69
2022/04/06 02:26:51;;;;;;;;;64.20;51.80;26.70;99.90;;;;;;5019845;28;8729;-69
2022/04/06 02:29:18;;;;;;;;;61.40;48.80;26.60;99.90;;;;;;5019503;28;8733;-68
2022/04/06 02:31:44;;;;;;;;;68.20;53.00;26.60;99.90;;;;;;5036458;28;9449;-69
2022/04/06 02:34:11;;;;;;;;;64.80;49.40;26.60;99.90;;;;;;5043522;28;8849;-69
2022/04/06 02:36:38;;;;;;;;;61.80;48.20;26.70;99.90;;;;;;5056371;28;8746;-69
2022/04/06 02:39:04;;;;;;;;;63.40;50.80;26.80;99.90;;;;;;5056259;28;8794;-69
2022/04/06 02:41:31;;;;;;;;;67.00;53.00;26.80;99.90;;;;;;5056245;28;9403;-69
2022/04/06 02:43:58;;;;;;;;;65.40;49.00;26.80;99.90;;;;;;5038960;28;8767;-70
2022/04/06 02:46:25;;;;;;;;;64.80;51.00;26.80;99.90;;;;;;5056304;28;9423;-67
2022/04/06 02:48:51;;;;;;;;;66.20;53.00;26.80;99.90;;;;;;5053836;28;8754;-69
2022/04/06 02:51:18;;;;;;;;;65.40;51.20;26.90;99.90;;;;;;5036366;28;8777;-68
2022/04/06 02:53:45;;;;;;;;;68.40;53.60;26.90;99.90;;;;;;5019288;28;8772;-69
2022/04/06 02:56:11;;;;;;;;;63.60;51.20;26.90;99.90;;;;;;5036864;28;8883;-68
2022/04/06 02:58:38;;;;;;;;;64.00;51.40;26.90;99.90;;;;;;5037362;28;9449;-69
2022/04/06 03:01:05;;;;;;;;;53.00;42.60;26.90;99.90;;;;;;5037591;28;8876;-69
2022/04/06 03:03:31;;;;;;;;;60.50;47.75;27.00;99.90;;;;;;5036790;28;8846;-69
2022/04/06 03:05:58;;;;;;;;;60.50;48.50;27.00;99.90;;;;;;5056340;28;8788;-70
2022/04/06 03:08:25;;;;;;;;;65.00;52.25;27.00;99.90;;;;;;5056109;28;8771;-69
2022/04/06 03:10:51;;;;;;;;;59.50;46.50;27.00;99.90;;;;;;5071490;28;8751;-69
2022/04/06 03:13:18;;;;;;;;;63.60;50.00;27.00;99.90;;;;;;5056637;28;8747;-68
2022/04/06 03:15:45;;;;;;;;;62.00;51.50;27.10;99.90;;;;;;5038578;28;8719;-69
2022/04/06 03:18:12;;;;;;;;;62.00;49.80;27.10;99.90;;;;;;5038586;28;8789;-69
2022/04/06 03:20:39;;;;;;;;;60.40;48.20;27.20;99.90;;;;;;5020355;28;8788;-69
2022/04/06 03:23:05;;;;;;;;;62.20;48.80;27.20;99.90;;;;;;5036279;28;8773;-70
2022/04/06 03:25:35;;;;;;;;;61.60;48.20;27.30;99.90;;;;;;5035499;28;8733;-69
2022/04/06 03:28:01;;;;;;;;;57.75;46.75;27.40;99.90;;;;;;5036408;28;8734;-69
2022/04/06 03:30:28;;;;;;;;;64.50;51.00;27.40;99.90;;;;;;5018543;28;8744;-69
2022/04/06 03:32:55;;;;;;;;;59.20;47.00;27.40;99.90;;;;;;5035935;28;8761;-69
2022/04/06 03:35:21;;;;;;;;;65.80;50.60;27.60;99.90;;;;;;5051375;28;8774;-68
2022/04/06 03:37:49;;;;;;;;;63.00;49.60;27.60;99.90;;;;;;5055954;28;8793;-69
2022/04/06 03:40:16;;;;;;;;;62.00;49.00;27.60;99.90;;;;;;5038610;28;8786;-69
2022/04/06 03:42:43;;;;;;;;;63.60;50.20;27.70;99.90;;;;;;5055799;28;8739;-69
2022/04/06 03:45:10;;;;;;;;;63.75;50.50;27.80;99.90;;;;;;5056035;28;8754;-69
2022/04/06 03:47:37;;;;;;;;;59.75;47.50;27.80;99.90;;;;;;5055694;28;9993;-69
2022/04/06 03:50:05;;;;;;;;;53.20;44.20;27.80;99.90;;;;;;5024881;28;8793;-69
2022/04/06 03:52:31;;;;;;;;;62.40;49.00;27.80;99.90;;;;;;5037916;28;8748;-68
2022/04/06 03:54:58;;;;;;;;;57.25;46.25;27.80;99.90;;;;;;5040165;28;8733;-69
2022/04/06 03:57:25;;;;;;;;;62.50;50.25;27.90;99.90;;;;;;5021789;28;8752;-68
2022/04/06 03:59:52;;;;;;;;;57.75;47.75;27.90;99.90;;;;;;5039601;28;8887;-69
2022/04/06 04:02:19;;;;;;;;;63.60;49.60;27.90;99.90;;;;;;5021798;28;9449;-68
2022/04/06 04:04:46;;;;;;;;;61.80;51.00;28.00;99.90;;;;;;5047592;28;8730;-69
2022/04/06 04:07:19;;;;;;;;;60.40;48.80;28.00;99.90;;;;;;5050278;28;8724;-69
2022/04/06 04:09:47;;;;;;;;;56.60;46.40;28.10;99.90;;;;;;5059380;28;8754;-69
2022/04/06 04:12:14;;;;;;;;;52.40;44.60;28.20;99.90;;;;;;5058250;28;8724;-69
2022/04/06 04:14:41;;;;;;;;;62.00;49.25;28.10;99.90;;;;;;5059342;28;8746;-69
2022/04/06 04:17:07;;;;;;;;;60.00;47.75;28.10;99.90;;;;;;5059459;28;8771;-69
2022/04/06 04:19:34;;;;;;;;;60.60;48.20;28.30;99.90;;;;;;5050011;28;8757;-68
2022/04/06 04:22:01;;;;;;;;;58.40;47.60;28.20;99.90;;;;;;5055608;28;8760;-69
2022/04/06 04:24:27;;;;;;;;;65.80;51.40;28.30;99.90;;;;;;5054364;28;8772;-68
2022/04/06 04:26:54;;;;;;;;;61.20;48.80;28.30;99.90;;;;;;5039258;28;8818;-69
2022/04/06 04:29:21;;;;;;;;;66.60;50.60;28.20;99.90;;;;;;5039049;28;8792;-68
2022/04/06 04:31:47;;;;;;;;;58.00;45.80;28.30;99.90;;;;;;5039314;28;8763;-69
2022/04/06 04:34:15;;;;;;;;;55.00;45.00;28.20;99.90;;;;;;5028664;28;8734;-69
2022/04/06 04:36:41;;;;;;;;;56.75;45.75;28.30;99.90;;;;;;5059241;28;8843;-68
2022/04/06 04:39:08;;;;;;;;;68.80;52.20;28.30;99.90;;;;;;5041377;28;8762;-69
2022/04/06 04:41:35;;;;;;;;;52.80;41.40;28.40;99.90;;;;;;5058882;28;9485;-69
2022/04/06 04:44:01;;;;;;;;;56.20;44.80;28.40;99.90;;;;;;5073866;28;8890;-69
2022/04/06 04:46:28;;;;;;;;;61.60;48.60;28.40;99.90;;;;;;5058115;28;8849;-68
2022/04/06 04:48:55;;;;;;;;;56.40;45.80;28.40;99.90;;;;;;5055535;28;8741;-68
2022/04/06 04:51:21;;;;;;;;;58.60;46.20;28.50;99.90;;;;;;5038253;28;8787;-67
2022/04/06 04:53:48;;;;;;;;;62.80;49.00;28.50;99.90;;;;;;5039126;28;8818;-69
2022/04/06 04:56:16;;;;;;;;;60.60;48.80;28.50;99.90;;;;;;5038434;28;8857;-69
2022/04/06 04:58:43;;;;;;;;;63.80;49.80;28.60;99.90;;;;;;5038119;28;8745;-69
2022/04/06 05:01:09;;;;;;;;;53.80;45.60;28.50;99.90;;;;;;5038639;28;8772;-68
2022/04/06 05:03:36;;;;;;;;;60.60;48.00;28.60;99.90;;;;;;5038136;28;8764;-69
2022/04/06 05:06:03;;;;;;;;;58.20;48.00;28.60;99.90;;;;;;5058147;28;8755;-69
2022/04/06 05:08:29;;;;;;;;;60.80;48.80;28.70;99.90;;;;;;5032332;28;8883;-69
2022/04/06 05:10:56;;;;;;;;;61.00;47.80;28.70;99.90;;;;;;5058095;28;8775;-69
2022/04/06 05:13:23;;;;;;;;;63.60;49.20;28.70;99.90;;;;;;5058451;28;9376;-68
2022/04/06 05:15:50;;;;;;;;;59.00;47.00;28.70;99.90;;;;;;5057984;28;8847;-69
2022/04/06 05:18:17;;;;;;;;;58.80;47.00;28.80;99.90;;;;;;5058164;28;8750;-68
2022/04/06 05:20:44;;;;;;;;;60.80;46.40;28.70;99.90;;;;;;5039229;28;8785;-69
2022/04/06 05:23:10;;;;;;;;;55.80;46.00;28.80;99.90;;;;;;5038104;28;8875;-69
2022/04/06 05:25:37;;;;;;;;;57.60;46.60;28.80;99.90;;;;;;5037772;28;8733;-69
2022/04/06 05:28:04;;;;;;;;;59.40;47.40;28.80;99.90;;;;;;5020904;28;8737;-69
2022/04/06 05:30:32;;;;;;;;;55.60;46.00;28.80;99.90;;;;;;5037558;28;8784;-69
2022/04/06 05:32:59;;;;;;;;;59.00;47.00;28.80;99.90;;;;;;5037637;28;8737;-69
2022/04/06 05:35:26;;;;;;;;;60.80;48.40;29.00;99.90;;;;;;5053322;28;8783;-69
2022/04/06 05:37:55;;;;;;;;;60.80;46.40;29.00;99.90;;;;;;5040062;28;8854;-69
2022/04/06 05:40:21;;;;;;;;;58.60;48.00;29.00;99.90;;;;;;5039967;28;8781;-68
2022/04/06 05:42:48;;;;;;;;;59.80;48.00;29.10;99.90;;;;;;5057401;28;8739;-69
2022/04/06 05:45:15;;;;;;;;;56.60;47.40;29.00;99.90;;;;;;5073071;28;8850;-69
2022/04/06 05:47:42;;;;;;;;;60.40;46.60;29.00;99.90;;;;;;5056965;28;8832;-68
2022/04/06 05:50:09;;;;;;;;;59.80;47.00;29.10;99.90;;;;;;5043554;28;8783;-69
2022/04/06 05:52:36;;;;;;;;;57.00;46.00;29.20;99.90;;;;;;5037123;28;8761;-68
2022/04/06 05:55:03;;;;;;;;;58.60;46.60;29.20;99.90;;;;;;5038840;28;8749;-69
2022/04/06 05:57:30;;;;;;;;;53.60;43.80;29.20;99.90;;;;;;5029908;28;8765;-69
2022/04/06 05:59:56;;;;;;;;;61.80;47.00;29.30;99.90;;;;;;5037775;28;8803;-69
2022/04/06 06:02:26;;;;;;;;;60.20;47.00;29.30;99.90;;;;;;5019536;28;8757;-69
2022/04/06 06:04:53;;;;;;;;;58.20;48.00;29.30;99.90;;;;;;5047214;28;8735;-69
2022/04/06 06:07:20;;;;;;;;;59.80;47.00;29.30;99.90;;;;;;5057169;28;8743;-68
2022/04/06 06:09:47;;;;;;;;;57.80;44.80;29.30;99.90;;;;;;5072191;28;8751;-69
2022/04/06 06:12:14;;;;;;;;;59.20;47.80;29.30;99.90;;;;;;5038993;28;8762;-69
2022/04/06 06:14:41;;;;;;;;;60.00;47.25;29.50;99.70;;;;;;5055709;28;8758;-69
2022/04/06 06:17:07;;;;;;;;;59.80;48.00;29.50;98.30;;;;;;5039531;28;8731;-69
2022/04/06 06:19:34;;;;;;;;;60.00;46.20;29.50;99.10;;;;;;5047398;28;8764;-69
2022/04/06 06:22:01;;;;;;;;;56.00;45.40;29.50;98.40;;;;;;5019557;28;8729;-69
2022/04/06 06:24:28;;;;;;;;;59.80;47.80;29.60;99.50;;;;;;5036527;28;8741;-69
2022/04/06 06:26:54;;;;;;;;;63.00;47.80;29.60;98.70;;;;;;5003051;28;9404;-69
2022/04/06 06:29:22;;;;;;;;;58.00;46.00;29.70;98.60;;;;;;5011223;28;8765;-68
2022/04/06 06:31:49;;;;;;;;;57.50;45.25;29.70;98.70;;;;;;5049190;28;8776;-69
2022/04/06 06:34:16;;;;;;;;;61.80;48.20;29.70;99.10;;;;;;5058914;28;8762;-68
2022/04/06 06:36:45;;;;;;;;;60.60;47.00;29.90;97.20;;;;;;5039404;28;9404;-69
2022/04/06 06:39:12;;;;;;;;;60.00;48.60;29.90;97.00;;;;;;5056980;28;8863;-69
2022/04/06 06:41:39;;;;;;;;;58.60;47.40;29.80;97.80;;;;;;5056727;28;8763;-69
2022/04/06 06:44:06;;;;;;;;;61.60;48.60;29.80;97.90;;;;;;5056791;28;8791;-69
2022/04/06 06:46:33;;;;;;;;;61.80;48.80;29.80;98.10;;;;;;5039369;28;8879;-69
2022/04/06 06:49:03;;;;;;;;;60.80;48.00;29.80;98.90;;;;;;5052868;28;9823;-69
2022/04/06 06:51:30;;;;;;;;;57.25;47.00;30.00;98.90;;;;;;5036296;28;8773;-69
2022/04/06 06:53:58;;;;;;;;;61.75;47.75;30.00;98.30;;;;;;5036387;28;8882;-69
2022/04/06 06:56:24;;;;;;;;;59.00;47.40;29.90;98.40;;;;;;5018757;28;8787;-68
2022/04/06 06:58:51;;;;;;;;;59.20;48.00;30.00;98.40;;;;;;5009142;28;8823;-69
2022/04/06 07:01:18;;;;;;;;;63.80;50.00;30.10;98.80;;;;;;5036784;28;8745;-68
2022/04/06 07:03:45;;;;;;;;;60.60;49.00;30.10;97.70;;;;;;5021204;28;8730;-69
2022/04/06 07:06:11;;;;;;;;;61.80;49.20;30.10;97.60;;;;;;5038833;28;8880;-69
2022/04/06 07:08:38;;;;;;;;;60.20;48.00;30.00;99.00;;;;;;5055294;28;8790;-69
2022/04/06 07:11:05;;;;;;;;;64.80;51.40;30.00;97.50;;;;;;5044698;28;8763;-69
2022/04/06 07:13:32;;;;;;;;;61.60;49.20;30.00;97.10;;;;;;5038566;28;8728;-69
2022/04/06 07:15:58;;;;;;;;;60.00;48.40;30.00;97.60;;;;;;5039450;28;8727;-69
2022/04/06 07:18:25;;;;;;;;;61.20;49.40;29.80;98.30;;;;;;5055512;28;8739;-69
2022/04/06 07:20:52;;;;;;;;;61.80;50.20;29.70;98.10;;;;;;5036503;28;8765;-69
2022/04/06 07:23:19;;;;;;;;;67.60;51.40;29.70;98.70;;;;;;5035996;28;8761;-68
2022/04/06 07:25:45;;;;;;;;;62.20;50.20;29.80;98.40;;;;;;5036554;28;8783;-69
2022/04/06 07:28:12;;;;;;;;;66.00;52.00;29.70;99.00;;;;;;5022955;28;8733;-69
2022/04/06 07:30:38;;;;;;;;;62.00;50.00;29.80;99.00;;;;;;5031451;28;8761;-69
2022/04/06 07:33:05;;;;;;;;;65.60;52.20;29.90;98.80;;;;;;5040084;28;8733;-69
2022/04/06 07:35:32;;;;;;;;;62.20;50.20;30.10;98.90;;;;;;5056259;28;9407;-69
2022/04/06 07:37:59;;;;;;;;;62.60;49.80;30.10;98.20;;;;;;5042246;28;8759;-69
2022/04/06 07:40:25;;;;;;;;;63.80;52.00;30.20;98.10;;;;;;5041879;28;8861;-68
2022/04/06 07:42:52;;;;;;;;;60.80;49.20;30.40;99.20;;;;;;5075667;28;8731;-69
2022/04/06 07:45:20;;;;;;;;;66.40;53.00;30.40;98.80;;;;;;5059639;28;8834;-68
2022/04/06 07:47:49;;;;;;;;;66.20;53.00;30.40;98.40;;;;;;5059858;28;8775;-69
2022/04/06 07:50:16;;;;;;;;;70.80;57.40;30.30;99.90;;;;;;5027569;28;8768;-69
2022/04/06 07:52:43;;;;;;;;;69.00;55.60;30.30;97.40;;;;;;5039498;28;8775;-69
2022/04/06 07:55:10;;;;;;;;;67.60;54.20;30.30;98.90;;;;;;5040468;28;8737;-69
2022/04/06 07:57:37;;;;;;;;;70.80;60.80;30.20;97.70;;;;;;5054754;28;8753;-69
2022/04/06 08:00:11;;;;;;;;;75.00;64.60;30.30;97.80;;;;;;5021717;28;8775;-69
2022/04/06 08:02:38;;;;;;;;;73.40;59.60;30.30;96.70;;;;;;5039365;28;9261;-69
2022/04/06 08:05:05;;;;;;;;;75.80;64.40;30.30;97.00;;;;;;5052742;28;8755;-68
2022/04/06 08:07:32;;;;;;;;;66.80;54.60;30.30;96.40;;;;;;5059075;28;8739;-68
2022/04/06 08:09:59;;;;;;;;;71.40;56.60;30.40;97.40;;;;;;5059424;28;8823;-69
2022/04/06 08:12:26;;;;;;;;;73.60;64.00;30.40;95.30;;;;;;5059022;28;9547;-68
2022/04/06 08:14:53;;;;;;;;;76.40;61.40;30.50;95.70;;;;;;5059197;28;8753;-69
2022/04/06 08:17:19;;;;;;;;;73.20;60.00;30.40;94.70;;;;;;5041345;28;8723;-69
2022/04/06 08:19:46;;;;;;;;;73.80;59.00;30.40;94.40;;;;;;5030727;28;8768;-69
2022/04/06 08:22:13;;;;;;;;;69.40;53.20;30.40;95.10;;;;;;5039662;28;8775;-69
2022/04/06 08:24:40;;;;;;;;;67.00;54.20;30.30;95.70;;;;;;5038688;28;8725;-69
2022/04/06 08:27:06;;;;;;;;;67.60;53.20;30.50;96.60;;;;;;5038901;28;8745;-69
2022/04/06 08:29:33;;;;;;;;;68.20;56.20;30.60;96.50;;;;;;5038826;28;8721;-68
2022/04/06 08:32:00;;;;;;;;;68.20;56.80;30.50;96.40;;;;;;5038902;28;8745;-69
2022/04/06 08:34:27;;;;;;;;;66.60;54.40;30.50;96.00;;;;;;5046419;28;8751;-69
2022/04/06 08:36:53;;;;;;;;;59.60;46.80;30.40;96.10;;;;;;5058813;28;8740;-69
2022/04/06 08:39:20;;;;;;;;;71.00;56.40;30.50;95.30;;;;;;5058138;28;8771;-67
2022/04/06 08:41:47;;;;;;;;;66.40;53.40;30.50;94.80;;;;;;5058505;28;8747;-68
2022/04/06 08:44:16;;;;;;;;;71.20;57.60;30.50;95.30;;;;;;5040923;28;8765;-67
2022/04/06 08:46:43;;;;;;;;;72.60;58.20;30.50;95.60;;;;;;5058063;28;8848;-66
2022/04/06 08:49:10;;;;;;;;;68.80;53.80;30.50;94.80;;;;;;5053886;28;8766;-68
2022/04/06 08:51:38;;;;;;;;;73.80;58.20;30.50;96.00;;;;;;5020849;28;8804;-69
2022/04/06 08:54:05;;;;;;;;;70.60;56.20;30.40;95.70;;;;;;5038498;28;8843;-69
2022/04/06 08:56:32;;;;;;;;;71.80;57.00;30.50;97.00;;;;;;5004228;28;8851;-69
2022/04/06 08:59:00;;;;;;;;;67.20;53.60;30.60;95.30;;;;;;5038291;28;9358;-69
2022/04/06 09:01:31;;;;;;;;;67.20;53.20;30.50;94.90;;;;;;5053329;28;8754;-68
2022/04/06 09:03:59;;;;;;;;;71.60;56.00;30.50;94.60;;;;;;5042854;28;8751;-69
2022/04/06 09:06:29;;;;;;;;;71.20;57.00;30.50;95.10;;;;;;5040312;28;8795;-69
2022/04/06 09:08:55;;;;;;;;;68.20;54.00;30.40;94.90;;;;;;5040956;28;8755;-69
2022/04/06 09:11:22;;;;;;;;;69.00;56.40;30.50;95.90;;;;;;5057610;28;8763;-69
2022/04/06 09:13:58;;;;;;;;;67.60;54.00;30.60;97.00;;;;;;5058062;28;8767;-69
2022/04/06 09:16:28;;;;;;;;;74.80;64.20;30.60;95.80;;;;;;5057526;28;9419;-67
2022/04/06 09:18:55;;;;;;;;;72.40;61.20;30.60;95.20;;;;;;5055151;28;8769;-69
2022/04/06 09:21:22;;;;;;;;;78.60;66.20;30.60;95.10;;;;;;5037739;28;9434;-68
2022/04/06 09:23:49;;;;;;;;;70.60;58.00;30.50;94.90;;;;;;5020307;28;8765;-69
2022/04/06 09:26:19;;;;;;;;;73.80;60.40;30.50;95.20;;;;;;5038175;28;9405;-69
2022/04/06 09:28:48;;;;;;;;;70.60;56.60;30.50;95.20;;;;;;5037704;28;8899;-69
2022/04/06 09:31:15;;;;;;;;;76.80;66.40;30.60;94.80;;;;;;5021299;28;8831;-69
2022/04/06 09:33:44;;;;;;;;;73.80;64.00;30.50;95.40;;;;;;5043747;28;8753;-69
2022/04/06 09:36:20;;;;;;;;;76.80;68.00;30.50;94.80;;;;;;5024313;28;8848;-69
2022/04/06 09:38:50;;;;;;;;;74.40;60.80;30.50;94.40;;;;;;5057566;28;8771;-69
2022/04/06 09:41:19;;;;;;;;;70.20;57.40;30.50;94.50;;;;;;5057787;28;8747;-69
2022/04/06 09:43:46;;;;;;;;;72.80;62.00;30.50;94.80;;;;;;5061922;28;10756;-69
2022/04/06 09:49:13;;;;;;;;;66.60;53.40;30.40;96.00;;;;;;5051648;28;8770;-69
2022/04/06 09:51:42;;;;;;;;;73.80;63.20;30.30;96.40;;;;;;5052203;28;8865;-69
2022/04/06 09:54:09;;;;;;;;;73.00;63.60;30.40;95.70;;;;;;5019635;28;8762;-69
2022/04/06 09:56:36;;;;;;;;;75.40;64.40;30.40;94.50;;;;;;5036888;28;8762;-69
2022/04/06 09:59:04;;;;;;;;;71.40;61.80;30.40;94.60;;;;;;5037079;28;8747;-69
2022/04/06 10:01:35;;;;;;;;;71.60;59.60;30.40;94.90;;;;;;5019372;28;8757;-68
2022/04/06 10:04:06;;;;;;;;;77.40;68.00;30.40;95.10;;;;;;5041774;28;8761;-69
2022/04/06 10:06:36;;;;;;;;;73.80;61.80;30.40;94.70;;;;;;5072151;28;8763;-69
2022/04/06 10:09:05;;;;;;;;;72.20;62.60;30.40;95.40;;;;;;5072275;28;8768;-69
2022/04/06 10:11:35;;;;;;;;;74.80;65.20;30.40;95.30;;;;;;5056508;28;8748;-69
2022/04/06 10:14:04;;;;;;;;;74.20;65.00;30.40;95.60;;;;;;5057024;28;8782;-69
2022/04/06 10:16:32;;;;;;;;;77.20;67.60;30.30;94.80;;;;;;5072009;28;8732;-69
2022/04/06 10:18:58;;;;;;;;;72.40;61.00;30.30;95.20;;;;;;5053483;28;8798;-69
2022/04/06 10:21:28;;;;;;;;;75.00;62.40;30.20;95.40;;;;;;5036841;28;8861;-69
2022/04/06 10:24:16;;;;;;;;;73.60;64.00;30.10;95.90;;;;;;5019228;28;8735;-69
2022/04/06 10:27:01;;;;;;;;;73.20;64.40;30.10;96.50;;;;;;5036623;28;9104;-69
2022/04/06 10:29:28;;;;;;;;;71.40;58.80;30.00;96.90;;;;;;5037919;28;8924;-69
2022/04/06 10:31:55;;;;;;;;;75.40;65.20;29.90;96.90;;;;;;5037751;28;8762;-69
2022/04/06 10:34:25;;;;;;;;;74.40;63.40;29.90;97.30;;;;;;5026629;28;8744;-69
2022/04/06 10:37:12;;;;;;;;;77.00;65.60;29.80;97.70;;;;;;5057499;28;8740;-69
2022/04/06 10:39:51;;;;;;;;;77.00;69.40;29.80;98.10;;;;;;5057053;28;8798;-69
2022/04/06 10:42:31;;;;;;;;;69.80;56.20;29.80;98.10;;;;;;5013963;28;8771;-68
2022/04/06 10:44:58;;;;;;;;;75.80;66.60;29.70;97.70;;;;;;5057368;28;9445;-69
2022/04/06 10:47:29;;;;;;;;;77.00;63.60;29.70;97.80;;;;;;5038674;28;8911;-69
2022/04/06 10:50:11;;;;;;;;;74.00;63.60;29.70;98.20;;;;;;5059703;28;9391;-69
2022/04/06 10:52:38;;;;;;;;;75.40;66.40;29.70;97.70;;;;;;5036726;28;8770;-69
2022/04/06 10:55:14;;;;;;;;;79.40;69.00;29.70;98.30;;;;;;5036790;28;8754;-69
2022/04/06 10:57:58;;;;;;;;;79.60;69.80;29.60;97.80;;;;;;5035259;28;8766;-69
2022/04/06 11:00:25;;;;;;;;;74.80;67.20;29.60;98.00;;;;;;5019139;28;8794;-68
2022/04/06 11:02:52;;;;;;;;;77.40;66.80;29.60;98.30;;;;;;5023023;28;8750;-69
2022/04/06 11:05:44;;;;;;;;;78.80;68.60;29.60;98.70;;;;;;5054977;28;8762;-68
2022/04/06 11:11:43;;;;;;;;;82.00;74.80;29.40;99.90;;;;;;5070872;28;10911;-69
2022/04/06 11:14:10;;;;;;;;;79.00;67.20;29.40;99.90;;;;;;5060499;28;8769;-69
2022/04/06 11:16:46;;;;;;;;;78.60;71.20;29.30;99.90;;;;;;5059937;28;8725;-69
2022/04/06 11:19:16;;;;;;;;;77.60;66.80;29.40;99.90;;;;;;5037257;28;8753;-69
2022/04/06 11:21:51;;;;;;;;;79.60;70.00;29.40;99.20;;;;;;5040300;28;8762;-69
2022/04/06 11:24:27;;;;;;;;;76.20;66.60;29.40;98.90;;;;;;5040484;28;8880;-69
2022/04/06 11:26:54;;;;;;;;;77.80;68.00;29.30;99.40;;;;;;5038875;28;8747;-69
2022/04/06 11:29:26;;;;;;;;;77.60;70.00;29.30;99.80;;;;;;5022164;28;8742;-69
2022/04/06 11:32:06;;;;;;;;;75.00;66.00;29.20;99.90;;;;;;5040272;28;8739;-69
2022/04/06 11:34:40;;;;;;;;;78.80;68.80;29.30;99.90;;;;;;5040830;28;8731;-69
2022/04/06 11:37:08;;;;;;;;;77.20;68.80;29.20;99.90;;;;;;5060271;28;8795;-69
2022/04/06 11:39:35;;;;;;;;;80.20;71.20;29.20;99.90;;;;;;5059461;28;8821;-69
2022/04/06 11:42:05;;;;;;;;;80.20;75.00;29.20;99.90;;;;;;5059772;28;8824;-69
2022/04/06 11:44:32;;;;;;;;;80.20;70.80;29.10;99.90;;;;;;5059540;28;8754;-69
2022/04/06 11:47:03;;;;;;;;;79.60;75.00;29.10;99.90;;;;;;5059407;28;8762;-68
2022/04/06 11:49:30;;;;;;;;;79.40;72.00;29.10;99.60;;;;;;5051182;28;8850;-69
2022/04/06 11:52:00;;;;;;;;;81.60;71.00;29.10;99.40;;;;;;5022259;28;8753;-69
2022/04/06 11:54:27;;;;;;;;;73.60;64.20;29.00;99.90;;;;;;5039273;28;8746;-69
2022/04/06 11:56:54;;;;;;;;;77.60;67.00;29.00;99.90;;;;;;5039711;28;8854;-69
2022/04/06 11:59:22;;;;;;;;;76.60;66.00;28.90;99.90;;;;;;5039099;28;8830;-68
2022/04/06 12:01:50;;;;;;;;;73.00;62.40;29.00;99.90;;;;;;5039421;28;8760;-69
2022/04/06 12:04:24;;;;;;;;;75.80;62.20;29.00;99.90;;;;;;5045885;28;8779;-69
2022/04/06 12:06:52;;;;;;;;;75.00;59.80;29.00;99.90;;;;;;5042000;28;9427;-69
2022/04/06 12:09:19;;;;;;;;;76.40;64.60;29.00;99.90;;;;;;5059394;28;8786;-68
2022/04/06 12:11:55;;;;;;;;;73.20;60.80;29.00;99.90;;;;;;5058302;28;8766;-69
2022/04/06 12:14:22;;;;;;;;;76.00;66.40;29.00;99.90;;;;;;5058683;28;8779;-69
2022/04/06 12:16:50;;;;;;;;;73.40;60.80;29.00;99.90;;;;;;5059122;28;8779;-69
2022/04/06 12:19:18;;;;;;;;;74.20;59.80;29.10;99.90;;;;;;5053473;28;8781;-69
2022/04/06 12:21:45;;;;;;;;;79.60;70.60;29.10;99.90;;;;;;5021744;28;8868;-69
2022/04/06 12:24:12;;;;;;;;;74.60;62.20;29.00;99.90;;;;;;5021770;28;8753;-69
2022/04/06 12:26:41;;;;;;;;;74.80;64.00;28.90;99.90;;;;;;5039199;28;8788;-69
2022/04/06 12:29:13;;;;;;;;;79.40;65.40;28.90;99.90;;;;;;5039029;28;8804;-69
2022/04/06 12:31:41;;;;;;;;;75.40;66.80;28.80;99.90;;;;;;5039302;28;8733;-69
2022/04/06 12:34:10;;;;;;;;;78.80;69.40;28.70;99.90;;;;;;5044338;28;8764;-69
2022/04/06 12:36:37;;;;;;;;;79.60;67.20;28.80;99.90;;;;;;5058817;28;8802;-69
2022/04/06 12:39:13;;;;;;;;;74.40;60.40;28.80;99.90;;;;;;5040746;28;8870;-70
2022/04/06 12:42:07;;;;;;;;;74.20;58.40;28.70;99.90;;;;;;5058331;28;8775;-69
2022/04/06 12:44:35;;;;;;;;;76.60;66.20;28.70;99.90;;;;;;5040324;28;8762;-69
2022/04/06 12:47:02;;;;;;;;;77.60;68.60;28.70;99.90;;;;;;5058180;28;8954;-69
2022/04/06 12:49:42;;;;;;;;;76.40;65.40;28.70;99.90;;;;;;5050224;28;8797;-69